sensor_id;sensor_type;location;lat;lon;timestamp;pressure;altitude;pressure_sealevel;temperature;humidity
27705;BME280;15109;50.992;6.918;2023-02-19T00:00:09;101275.91;;;10.93;100.00
27705;BME280;15109;50.992;6.918;2023-02-19T00:03:34;101269.78;;;10.91;100.00
27705;BME280;15109;50.992;6.918;2023-02-19T00:06:55;101261.88;;;10.88;100.00
27705;BME280;15109;50.992;6.918;2023-02-19T00:10:17;101262.94;;;10.87;100.00
27705;BME280;15109;50.992;6.918;2023-02-19T00:13:42;101254.91;;;10.85;100.00
27705;BME280;15109;50.992;6.918;2023-02-19T00:17:04;101260.88;;;10.89;100.00
27705;BME280;15109;50.992;6.918;2023-02-19T00:20:25;101253.69;;;10.88;100.00
27705;BME280;15109;50.992;6.918;2023-02-19T00:23:50;101248.03;;;10.89;100.00
27705;BME280;15109;50.992;6.918;2023-02-19T00:27:12;101258.50;;;10.86;100.00
27705;BME280;15109;50.992;6.918;2023-02-19T00:30:33;101256.78;;;10.85;100.00
27705;BME280;15109;50.992;6.918;2023-02-19T00:33:57;101247.56;;;10.86;100.00
27705;BME280;15109;50.992;6.918;2023-02-19T00:37:18;101244.44;;;10.89;100.00
27705;BME280;15109;50.992;6.918;2023-02-19T00:40:39;101245.66;;;10.86;100.00
27705;BME280;15109;50.992;6.918;2023-02-19T00:44:04;101245.31;;;10.89;100.00
27705;BME280;15109;50.992;6.918;2023-02-19T00:47:25;101241.88;;;10.87;100.00
27705;BME280;15109;50.992;6.918;2023-02-19T00:50:46;101243.97;;;10.85;100.00
27705;BME280;15109;50.992;6.918;2023-02-19T00:54:09;101235.34;;;10.97;100.00
27705;BME280;15109;50.992;6.918;2023-02-19T00:57:30;101226.44;;;11.03;100.00
27705;BME280;15109;50.992;6.918;2023-02-19T01:00:51;101216.53;;;11.02;100.00
27705;BME280;15109;50.992;6.918;2023-02-19T01:04:13;101229.72;;;10.98;100.00
27705;BME280;15109;50.992;6.918;2023-02-19T01:07:36;101219.97;;;11.04;100.00
27705;BME280;15109;50.992;6.918;2023-02-19T01:10:58;101224.75;;;11.02;100.00
27705;BME280;15109;50.992;6.918;2023-02-19T01:14:20;101226.09;;;11.06;100.00
27705;BME280;15109;50.992;6.918;2023-02-19T01:17:41;101229.31;;;11.09;100.00
27705;BME280;15109;50.992;6.918;2023-02-19T01:21:07;101228.66;;;11.07;100.00
27705;BME280;15109;50.992;6.918;2023-02-19T01:24:29;101235.66;;;11.10;100.00
27705;BME280;15109;50.992;6.918;2023-02-19T01:27:50;101231.56;;;11.06;100.00
27705;BME280;15109;50.992;6.918;2023-02-19T01:31:13;101225.06;;;11.07;100.00
27705;BME280;15109;50.992;6.918;2023-02-19T01:34:34;101226.44;;;11.03;100.00
27705;BME280;15109;50.992;6.918;2023-02-19T01:37:56;101233.28;;;11.07;100.00
27705;BME280;15109;50.992;6.918;2023-02-19T01:41:23;101223.56;;;11.04;100.00
27705;BME280;15109;50.992;6.918;2023-02-19T01:48:22;101217.19;;;11.12;100.00
27705;BME280;15109;50.992;6.918;2023-02-19T01:51:48;101216.31;;;11.11;100.00
27705;BME280;15109;50.992;6.918;2023-02-19T01:55:13;101221.97;;;11.10;100.00
27705;BME280;15109;50.992;6.918;2023-02-19T01:58:35;101220.44;;;11.07;100.00
27705;BME280;15109;50.992;6.918;2023-02-19T02:01:57;101221.97;;;11.10;100.00
27705;BME280;15109;50.992;6.918;2023-02-19T02:08:56;101221.97;;;11.10;100.00
27705;BME280;15109;50.992;6.918;2023-02-19T02:12:36;101217.53;;;11.09;100.00
27705;BME280;15109;50.992;6.918;2023-02-19T02:23:59;101223.56;;;11.04;100.00
27705;BME280;15109;50.992;6.918;2023-02-19T02:31:15;101224.56;;;11.03;100.00
27705;BME280;15109;50.992;6.918;2023-02-19T02:35:00;101216.16;;;11.05;100.00
27705;BME280;15109;50.992;6.918;2023-02-19T02:38:28;101211.59;;;10.97;100.00
27705;BME280;15109;50.992;6.918;2023-02-19T02:41:56;101204.72;;;11.01;100.00
27705;BME280;15109;50.992;6.918;2023-02-19T02:45:40;101206.81;;;10.99;100.00
27705;BME280;15109;50.992;6.918;2023-02-19T02:49:19;101217.75;;;10.99;100.00
27705;BME280;15109;50.992;6.918;2023-02-19T02:52:43;101214.47;;;11.04;100.00
27705;BME280;15109;50.992;6.918;2023-02-19T02:56:25;101205.41;;;11.03;100.00
27705;BME280;15109;50.992;6.918;2023-02-19T02:59:46;101214.66;;;11.02;100.00
27705;BME280;15109;50.992;6.918;2023-02-19T03:03:11;101224.09;;;11.00;100.00
27705;BME280;15109;50.992;6.918;2023-02-19T03:06:35;101228.16;;;11.04;100.00
27705;BME280;15109;50.992;6.918;2023-02-19T03:09:58;101225.97;;;10.99;100.00
27705;BME280;15109;50.992;6.918;2023-02-19T03:13:30;101235.69;;;11.02;100.00
27705;BME280;15109;50.992;6.918;2023-02-19T03:17:19;101227.69;;;11.00;100.00
27705;BME280;15109;50.992;6.918;2023-02-19T03:21:01;101238.78;;;10.99;100.00
27705;BME280;15109;50.992;6.918;2023-02-19T03:24:28;101246.50;;;10.95;100.00
27705;BME280;15109;50.992;6.918;2023-02-19T03:28:10;101244.09;;;11.00;100.00
27705;BME280;15109;50.992;6.918;2023-02-19T03:31:32;101237.41;;;11.03;100.00
27705;BME280;15109;50.992;6.918;2023-02-19T03:35:00;101241.34;;;11.00;100.00
27705;BME280;15109;50.992;6.918;2023-02-19T03:38:29;101256.06;;;10.99;100.00
27705;BME280;15109;50.992;6.918;2023-02-19T03:41:59;101258.09;;;10.97;100.00
27705;BME280;15109;50.992;6.918;2023-02-19T03:45:46;101251.78;;;10.97;100.00
27705;BME280;15109;50.992;6.918;2023-02-19T03:49:15;101254.50;;;10.97;100.00
27705;BME280;15109;50.992;6.918;2023-02-19T03:56:21;101261.03;;;10.96;100.00
27705;BME280;15109;50.992;6.918;2023-02-19T04:00:08;101277.44;;;10.96;100.00
27705;BME280;15109;50.992;6.918;2023-02-19T04:03:40;101274.53;;;10.97;100.00
27705;BME280;15109;50.992;6.918;2023-02-19T04:07:05;101277.94;;;10.99;100.00
27705;BME280;15109;50.992;6.918;2023-02-19T04:10:30;101284.44;;;10.98;100.00
27705;BME280;15109;50.992;6.918;2023-02-19T04:13:58;101292.97;;;11.03;100.00
27705;BME280;15109;50.992;6.918;2023-02-19T04:17:25;101297.09;;;10.99;100.00
27705;BME280;15109;50.992;6.918;2023-02-19T04:20:49;101297.97;;;11.00;100.00
27705;BME280;15109;50.992;6.918;2023-02-19T04:24:15;101307.03;;;11.00;100.00
27705;BME280;15109;50.992;6.918;2023-02-19T04:27:39;101313.19;;;10.94;100.00
27705;BME280;15109;50.992;6.918;2023-02-19T04:31:00;101309.09;;;10.90;100.00
27705;BME280;15109;50.992;6.918;2023-02-19T04:34:21;101311.66;;;10.83;100.00
27705;BME280;15109;50.992;6.918;2023-02-19T04:37:42;101317.66;;;10.79;100.00
27705;BME280;15109;50.992;6.918;2023-02-19T04:41:03;101323.50;;;10.68;100.00
27705;BME280;15109;50.992;6.918;2023-02-19T04:44:25;101333.06;;;10.64;100.00
27705;BME280;15109;50.992;6.918;2023-02-19T04:47:46;101329.31;;;10.65;100.00
27705;BME280;15109;50.992;6.918;2023-02-19T04:51:07;101326.75;;;10.63;100.00
27705;BME280;15109;50.992;6.918;2023-02-19T04:54:29;101330.84;;;10.59;100.00
27705;BME280;15109;50.992;6.918;2023-02-19T04:57:50;101334.28;;;10.61;100.00
27705;BME280;15109;50.992;6.918;2023-02-19T05:01:11;101349.97;;;10.59;100.00
27705;BME280;15109;50.992;6.918;2023-02-19T05:04:32;101340.94;;;10.51;100.00
27705;BME280;15109;50.992;6.918;2023-02-19T05:07:53;101343.50;;;10.44;100.00
27705;BME280;15109;50.992;6.918;2023-02-19T05:11:14;101354.97;;;10.39;100.00
27705;BME280;15109;50.992;6.918;2023-02-19T05:14:36;101350.84;;;10.35;100.00
27705;BME280;15109;50.992;6.918;2023-02-19T05:17:57;101346.22;;;10.36;100.00
27705;BME280;15109;50.992;6.918;2023-02-19T05:21:18;101349.44;;;10.31;100.00
27705;BME280;15109;50.992;6.918;2023-02-19T05:24:39;101355.09;;;10.30;100.00
27705;BME280;15109;50.992;6.918;2023-02-19T05:28:00;101354.25;;;10.29;100.00
27705;BME280;15109;50.992;6.918;2023-02-19T05:31:36;101368.78;;;10.30;100.00
27705;BME280;15109;50.992;6.918;2023-02-19T05:34:57;101373.75;;;10.34;100.00
27705;BME280;15109;50.992;6.918;2023-02-19T05:38:19;101385.84;;;10.32;100.00
27705;BME280;15109;50.992;6.918;2023-02-19T05:41:41;101389.63;;;10.31;100.00
27705;BME280;15109;50.992;6.918;2023-02-19T05:45:02;101390.44;;;10.31;100.00
27705;BME280;15109;50.992;6.918;2023-02-19T05:48:23;101400.00;;;10.27;100.00
27705;BME280;15109;50.992;6.918;2023-02-19T05:51:44;101401.06;;;10.26;100.00
27705;BME280;15109;50.992;6.918;2023-02-19T05:55:05;101400.22;;;10.26;100.00
27705;BME280;15109;50.992;6.918;2023-02-19T05:58:27;101407.69;;;10.24;100.00
27705;BME280;15109;50.992;6.918;2023-02-19T06:01:50;101407.19;;;10.20;100.00
27705;BME280;15109;50.992;6.918;2023-02-19T06:05:12;101414.69;;;10.18;100.00
27705;BME280;15109;50.992;6.918;2023-02-19T06:08:33;101408.66;;;10.15;100.00
27705;BME280;15109;50.992;6.918;2023-02-19T06:11:54;101411.03;;;10.10;100.00
27705;BME280;15109;50.992;6.918;2023-02-19T06:15:15;101420.81;;;10.12;100.00
27705;BME280;15109;50.992;6.918;2023-02-19T06:18:36;101421.97;;;10.10;100.00
27705;BME280;15109;50.992;6.918;2023-02-19T06:21:57;101418.06;;;10.12;100.00
27705;BME280;15109;50.992;6.918;2023-02-19T06:25:18;101429.66;;;10.06;100.00
27705;BME280;15109;50.992;6.918;2023-02-19T06:28:40;101433.94;;;10.00;100.00
27705;BME280;15109;50.992;6.918;2023-02-19T06:32:02;101442.28;;;9.99;100.00
27705;BME280;15109;50.992;6.918;2023-02-19T06:35:23;101441.94;;;10.02;100.00
27705;BME280;15109;50.992;6.918;2023-02-19T06:38:44;101436.31;;;10.03;100.00
27705;BME280;15109;50.992;6.918;2023-02-19T06:42:05;101446.38;;;10.03;100.00
27705;BME280;15109;50.992;6.918;2023-02-19T06:45:26;101448.97;;;10.05;100.00
27705;BME280;15109;50.992;6.918;2023-02-19T06:48:47;101461.78;;;10.04;100.00
27705;BME280;15109;50.992;6.918;2023-02-19T06:52:11;101460.19;;;10.01;100.00
27705;BME280;15109;50.992;6.918;2023-02-19T06:55:32;101460.06;;;10.03;100.00
27705;BME280;15109;50.992;6.918;2023-02-19T06:58:55;101461.25;;;10.00;100.00
27705;BME280;15109;50.992;6.918;2023-02-19T07:02:17;101457.31;;;10.03;100.00
27705;BME280;15109;50.992;6.918;2023-02-19T07:05:38;101473.22;;;10.08;100.00
27705;BME280;15109;50.992;6.918;2023-02-19T07:08:59;101476.44;;;10.03;100.00
27705;BME280;15109;50.992;6.918;2023-02-19T07:12:21;101482.78;;;10.03;100.00
27705;BME280;15109;50.992;6.918;2023-02-19T07:15:42;101500.38;;;10.09;100.00
27705;BME280;15109;50.992;6.918;2023-02-19T07:19:03;101505.84;;;10.09;100.00
27705;BME280;15109;50.992;6.918;2023-02-19T07:22:24;101501.19;;;10.01;100.00
27705;BME280;15109;50.992;6.918;2023-02-19T07:25:45;101506.50;;;10.03;100.00
27705;BME280;15109;50.992;6.918;2023-02-19T07:29:06;101506.16;;;10.06;100.00
27705;BME280;15109;50.992;6.918;2023-02-19T07:32:27;101517.09;;;10.06;100.00
27705;BME280;15109;50.992;6.918;2023-02-19T07:35:49;101521.53;;;10.07;100.00
27705;BME280;15109;50.992;6.918;2023-02-19T07:39:12;101531.78;;;10.05;100.00
27705;BME280;15109;50.992;6.918;2023-02-19T07:42:33;101543.00;;;9.94;100.00
27705;BME280;15109;50.992;6.918;2023-02-19T07:45:55;101542.47;;;9.90;100.00
27705;BME280;15109;50.992;6.918;2023-02-19T07:49:16;101551.84;;;9.88;100.00
27705;BME280;15109;50.992;6.918;2023-02-19T07:52:37;101561.97;;;9.95;100.00
27705;BME280;15109;50.992;6.918;2023-02-19T07:56:00;101559.03;;;9.97;100.00
27705;BME280;15109;50.992;6.918;2023-02-19T07:59:21;101559.75;;;9.99;100.00
27705;BME280;15109;50.992;6.918;2023-02-19T08:02:42;101566.94;;;10.00;100.00
27705;BME280;15109;50.992;6.918;2023-02-19T08:06:22;101576.16;;;9.99;100.00
27705;BME280;15109;50.992;6.918;2023-02-19T08:09:43;101582.25;;;9.93;100.00
27705;BME280;15109;50.992;6.918;2023-02-19T08:13:05;101585.53;;;9.96;100.00
27705;BME280;15109;50.992;6.918;2023-02-19T08:16:49;101587.22;;;9.97;100.00
27705;BME280;15109;50.992;6.918;2023-02-19T08:20:10;101591.84;;;9.97;100.00
27705;BME280;15109;50.992;6.918;2023-02-19T08:23:31;101598.88;;;9.99;100.00
27705;BME280;15109;50.992;6.918;2023-02-19T08:26:52;101592.06;;;10.03;100.00
27705;BME280;15109;50.992;6.918;2023-02-19T08:30:13;101601.66;;;10.08;100.00
27705;BME280;15109;50.992;6.918;2023-02-19T08:33:35;101597.13;;;10.16;100.00
27705;BME280;15109;50.992;6.918;2023-02-19T08:36:56;101612.69;;;10.24;100.00
27705;BME280;15109;50.992;6.918;2023-02-19T08:40:17;101613.22;;;10.27;100.00
27705;BME280;15109;50.992;6.918;2023-02-19T08:43:39;101618.19;;;10.32;100.00
27705;BME280;15109;50.992;6.918;2023-02-19T08:47:00;101619.25;;;10.31;100.00
27705;BME280;15109;50.992;6.918;2023-02-19T08:50:23;101622.31;;;10.36;100.00
27705;BME280;15109;50.992;6.918;2023-02-19T08:53:44;101622.38;;;10.44;100.00
27705;BME280;15109;50.992;6.918;2023-02-19T08:57:05;101627.03;;;10.52;100.00
27705;BME280;15109;50.992;6.918;2023-02-19T09:00:26;101628.53;;;10.46;100.00
27705;BME280;15109;50.992;6.918;2023-02-19T09:03:47;101631.97;;;10.48;100.00
27705;BME280;15109;50.992;6.918;2023-02-19T09:07:11;101628.44;;;10.64;100.00
27705;BME280;15109;50.992;6.918;2023-02-19T09:10:32;101626.44;;;10.74;100.00
27705;BME280;15109;50.992;6.918;2023-02-19T09:13:54;101635.16;;;10.77;100.00
27705;BME280;15109;50.992;6.918;2023-02-19T09:17:16;101638.72;;;10.70;100.00
27705;BME280;15109;50.992;6.918;2023-02-19T09:20:37;101637.41;;;10.82;100.00
27705;BME280;15109;50.992;6.918;2023-02-19T09:23:58;101646.31;;;10.92;100.00
27705;BME280;15109;50.992;6.918;2023-02-19T09:27:19;101657.44;;;10.90;100.00
27705;BME280;15109;50.992;6.918;2023-02-19T09:30:40;101665.44;;;10.84;100.00
27705;BME280;15109;50.992;6.918;2023-02-19T09:34:01;101663.72;;;10.83;100.00
27705;BME280;15109;50.992;6.918;2023-02-19T09:37:26;101669.75;;;10.95;100.00
27705;BME280;15109;50.992;6.918;2023-02-19T09:40:47;101670.16;;;11.08;100.00
27705;BME280;15109;50.992;6.918;2023-02-19T09:44:12;101672.66;;;11.01;100.00
27705;BME280;15109;50.992;6.918;2023-02-19T09:47:34;101676.13;;;11.11;100.00
27705;BME280;15109;50.992;6.918;2023-02-19T09:50:56;101688.47;;;11.15;100.00
27705;BME280;15109;50.992;6.918;2023-02-19T09:54:24;101695.47;;;11.18;100.00
27705;BME280;15109;50.992;6.918;2023-02-19T09:57:46;101694.28;;;11.12;100.00
27705;BME280;15109;50.992;6.918;2023-02-19T10:01:09;101687.91;;;11.04;100.00
27705;BME280;15109;50.992;6.918;2023-02-19T10:04:31;101703.09;;;10.90;100.00
27705;BME280;15109;50.992;6.918;2023-02-19T10:07:53;101696.94;;;10.96;100.00
27705;BME280;15109;50.992;6.918;2023-02-19T10:11:15;101701.88;;;10.92;100.00
27705;BME280;15109;50.992;6.918;2023-02-19T10:14:41;101693.91;;;10.99;100.00
27705;BME280;15109;50.992;6.918;2023-02-19T10:18:04;101706.00;;;10.97;100.00
27705;BME280;15109;50.992;6.918;2023-02-19T10:21:27;101718.88;;;11.04;100.00
27705;BME280;15109;50.992;6.918;2023-02-19T10:24:52;101732.56;;;11.04;100.00
27705;BME280;15109;50.992;6.918;2023-02-19T10:28:18;101753.09;;;11.00;100.00
27705;BME280;15109;50.992;6.918;2023-02-19T10:31:40;101750.88;;;11.04;100.00
27705;BME280;15109;50.992;6.918;2023-02-19T10:35:15;101743.53;;;11.04;100.00
27705;BME280;15109;50.992;6.918;2023-02-19T10:38:38;101754.13;;;11.07;100.00
27705;BME280;15109;50.992;6.918;2023-02-19T10:42:01;101762.69;;;11.04;100.00
27705;BME280;15109;50.992;6.918;2023-02-19T10:45:26;101774.59;;;10.95;100.00
27705;BME280;15109;50.992;6.918;2023-02-19T10:48:57;101774.97;;;10.74;100.00
27705;BME280;15109;50.992;6.918;2023-02-19T10:52:27;101782.94;;;10.85;100.00
27705;BME280;15109;50.992;6.918;2023-02-19T10:56:11;101790.81;;;10.88;100.00
27705;BME280;15109;50.992;6.918;2023-02-19T10:59:33;101791.63;;;10.81;100.00
27705;BME280;15109;50.992;6.918;2023-02-19T11:03:13;101797.94;;;10.81;100.00
27705;BME280;15109;50.992;6.918;2023-02-19T11:06:37;101802.06;;;10.85;100.00
27705;BME280;15109;50.992;6.918;2023-02-19T11:10:00;101796.59;;;10.85;100.00
27705;BME280;15109;50.992;6.918;2023-02-19T11:13:30;101799.59;;;11.00;100.00
27705;BME280;15109;50.992;6.918;2023-02-19T11:16:53;101799.72;;;11.24;100.00
27705;BME280;15109;50.992;6.918;2023-02-19T11:20:18;101800.47;;;11.43;100.00
27705;BME280;15109;50.992;6.918;2023-02-19T11:23:44;101792.81;;;11.62;100.00
27705;BME280;15109;50.992;6.918;2023-02-19T11:27:15;101796.13;;;11.74;100.00
27705;BME280;15109;50.992;6.918;2023-02-19T11:30:42;101808.13;;;11.73;100.00
27705;BME280;15109;50.992;6.918;2023-02-19T11:37:33;101799.91;;;11.81;100.00
27705;BME280;15109;50.992;6.918;2023-02-19T11:48:22;101788.03;;;11.64;100.00
27705;BME280;15109;50.992;6.918;2023-02-19T11:59:04;101789.81;;;11.73;100.00
27705;BME280;15109;50.992;6.918;2023-02-19T12:06:21;101789.28;;;11.78;100.00
27705;BME280;15109;50.992;6.918;2023-02-19T12:13:55;101779.03;;;11.80;100.00
27705;BME280;15109;50.992;6.918;2023-02-19T12:36:08;101790.84;;;12.21;100.00
27705;BME280;15109;50.992;6.918;2023-02-19T12:40:00;101784.88;;;12.17;100.00
27705;BME280;15109;50.992;6.918;2023-02-19T12:43:23;101794.97;;;12.17;100.00
27705;BME280;15109;50.992;6.918;2023-02-19T12:46:51;101786.25;;;12.05;100.00
27705;BME280;15109;50.992;6.918;2023-02-19T12:50:18;101794.47;;;11.97;100.00
27705;BME280;15109;50.992;6.918;2023-02-19T12:53:47;101794.97;;;12.01;100.00
27705;BME280;15109;50.992;6.918;2023-02-19T12:57:33;101791.22;;;11.94;100.00
27705;BME280;15109;50.992;6.918;2023-02-19T13:00:56;101785.38;;;11.89;100.00
27705;BME280;15109;50.992;6.918;2023-02-19T13:08:01;101808.88;;;11.57;100.00
27705;BME280;15109;50.992;6.918;2023-02-19T13:15:40;101808.59;;;11.68;100.00
27705;BME280;15109;50.992;6.918;2023-02-19T13:19:04;101809.88;;;11.82;100.00
27705;BME280;15109;50.992;6.918;2023-02-19T13:23:19;101814.81;;;11.87;100.00
27705;BME280;15109;50.992;6.918;2023-02-19T13:38:01;101819.97;;;11.81;100.00
27705;BME280;15109;50.992;6.918;2023-02-19T13:41:30;101822.34;;;11.76;100.00
27705;BME280;15109;50.992;6.918;2023-02-19T13:44:55;101831.59;;;11.75;100.00
27705;BME280;15109;50.992;6.918;2023-02-19T13:51:48;101849.66;;;11.60;100.00
27705;BME280;15109;50.992;6.918;2023-02-19T13:55:47;101853.72;;;11.56;100.00
27705;BME280;15109;50.992;6.918;2023-02-19T14:02:45;101848.69;;;11.35;100.00
27705;BME280;15109;50.992;6.918;2023-02-19T14:06:08;101841.16;;;11.29;100.00
27705;BME280;15109;50.992;6.918;2023-02-19T14:12:56;101856.50;;;11.22;100.00
27705;BME280;15109;50.992;6.918;2023-02-19T14:23:36;101887.53;;;11.05;100.00
27705;BME280;15109;50.992;6.918;2023-02-19T14:26:58;101882.25;;;11.04;100.00
27705;BME280;15109;50.992;6.918;2023-02-19T14:30:21;101883.59;;;11.00;100.00
27705;BME280;15109;50.992;6.918;2023-02-19T14:33:48;101888.88;;;11.01;100.00
27705;BME280;15109;50.992;6.918;2023-02-19T14:37:16;101900.31;;;10.97;100.00
27705;BME280;15109;50.992;6.918;2023-02-19T14:40:39;101920.84;;;10.75;100.00
27705;BME280;15109;50.992;6.918;2023-02-19T14:44:02;101921.22;;;10.80;100.00
27705;BME280;15109;50.992;6.918;2023-02-19T14:47:26;101923.09;;;10.62;100.00
27705;BME280;15109;50.992;6.918;2023-02-19T14:50:51;101915.28;;;10.67;100.00
27705;BME280;15109;50.992;6.918;2023-02-19T14:54:17;101910.06;;;10.73;100.00
27705;BME280;15109;50.992;6.918;2023-02-19T14:57:42;101916.41;;;10.74;100.00
27705;BME280;15109;50.992;6.918;2023-02-19T15:01:05;101921.47;;;10.69;100.00
27705;BME280;15109;50.992;6.918;2023-02-19T15:04:34;101911.41;;;10.69;100.00
27705;BME280;15109;50.992;6.918;2023-02-19T15:08:02;101902.75;;;10.56;100.00
27705;BME280;15109;50.992;6.918;2023-02-19T15:11:26;101913.97;;;10.53;100.00
27705;BME280;15109;50.992;6.918;2023-02-19T15:14:50;101898.34;;;10.63;100.00
27705;BME280;15109;50.992;6.918;2023-02-19T15:18:20;101897.47;;;10.63;100.00
27705;BME280;15109;50.992;6.918;2023-02-19T15:21:45;101885.47;;;10.56;100.00
27705;BME280;15109;50.992;6.918;2023-02-19T15:25:14;101873.09;;;10.69;100.00
27705;BME280;15109;50.992;6.918;2023-02-19T15:28:36;101875.50;;;10.72;100.00
27705;BME280;15109;50.992;6.918;2023-02-19T15:31:59;101867.94;;;10.66;100.00
27705;BME280;15109;50.992;6.918;2023-02-19T15:35:21;101862.94;;;10.62;100.00
27705;BME280;15109;50.992;6.918;2023-02-19T15:38:44;101863.41;;;10.57;100.00
27705;BME280;15109;50.992;6.918;2023-02-19T15:42:07;101857.59;;;10.52;100.00
27705;BME280;15109;50.992;6.918;2023-02-19T15:52:20;101836.72;;;10.51;100.00
27705;BME280;15109;50.992;6.918;2023-02-19T15:55:44;101836.88;;;10.50;100.00
27705;BME280;15109;50.992;6.918;2023-02-19T15:59:20;101836.88;;;10.50;100.00
27705;BME280;15109;50.992;6.918;2023-02-19T16:02:44;101847.66;;;10.51;100.00
27705;BME280;15109;50.992;6.918;2023-02-19T16:06:08;101849.69;;;10.49;100.00
27705;BME280;15109;50.992;6.918;2023-02-19T16:09:34;101855.78;;;10.43;100.00
27705;BME280;15109;50.992;6.918;2023-02-19T16:12:58;101846.41;;;10.45;100.00
27705;BME280;15109;50.992;6.918;2023-02-19T16:16:22;101854.47;;;10.47;100.00
27705;BME280;15109;50.992;6.918;2023-02-19T16:19:55;101867.28;;;10.46;100.00
27705;BME280;15109;50.992;6.918;2023-02-19T16:23:18;101877.50;;;10.44;100.00
27705;BME280;15109;50.992;6.918;2023-02-19T16:26:44;101875.41;;;10.38;100.00
27705;BME280;15109;50.992;6.918;2023-02-19T16:30:26;101880.00;;;10.38;100.00
27705;BME280;15109;50.992;6.918;2023-02-19T16:33:49;101886.03;;;10.41;100.00
27705;BME280;15109;50.992;6.918;2023-02-19T16:47:45;101904.00;;;10.26;100.00
27705;BME280;15109;50.992;6.918;2023-02-19T16:51:16;101904.69;;;10.28;100.00
27705;BME280;15109;50.992;6.918;2023-02-19T16:54:41;101915.63;;;10.28;100.00
27705;BME280;15109;50.992;6.918;2023-02-19T16:58:03;101934.34;;;10.23;100.00
27705;BME280;15109;50.992;6.918;2023-02-19T17:01:25;101926.81;;;10.17;100.00
27705;BME280;15109;50.992;6.918;2023-02-19T17:04:47;101940.28;;;10.19;100.00
27705;BME280;15109;50.992;6.918;2023-02-19T17:08:32;101948.66;;;10.17;100.00
27705;BME280;15109;50.992;6.918;2023-02-19T17:11:53;101953.41;;;10.15;100.00
27705;BME280;15109;50.992;6.918;2023-02-19T17:15:14;101961.59;;;10.15;100.00
27705;BME280;15109;50.992;6.918;2023-02-19T17:18:36;101969.09;;;10.13;100.00
27705;BME280;15109;50.992;6.918;2023-02-19T17:21:57;101981.03;;;10.12;100.00
27705;BME280;15109;50.992;6.918;2023-02-19T17:25:18;101990.72;;;9.97;100.00
27705;BME280;15109;50.992;6.918;2023-02-19T17:28:40;101995.50;;;9.95;100.00
27705;BME280;15109;50.992;6.918;2023-02-19T17:32:01;101993.22;;;9.90;100.00
27705;BME280;15109;50.992;6.918;2023-02-19T17:35:22;102002.19;;;9.83;100.00
27705;BME280;15109;50.992;6.918;2023-02-19T17:38:44;102008.66;;;9.82;100.00
27705;BME280;15109;50.992;6.918;2023-02-19T17:42:05;102011.69;;;9.79;100.00
27705;BME280;15109;50.992;6.918;2023-02-19T17:45:26;102019.16;;;9.77;100.00
27705;BME280;15109;50.992;6.918;2023-02-19T17:48:48;102010.66;;;9.80;100.00
27705;BME280;15109;50.992;6.918;2023-02-19T17:52:09;102010.28;;;9.75;100.00
27705;BME280;15109;50.992;6.918;2023-02-19T17:55:32;102023.34;;;9.71;100.00
27705;BME280;15109;50.992;6.918;2023-02-19T17:58:55;102030.28;;;9.66;100.00
27705;BME280;15109;50.992;6.918;2023-02-19T18:02:16;102041.91;;;9.68;100.00
27705;BME280;15109;50.992;6.918;2023-02-19T18:05:37;102015.91;;;9.64;100.00
27705;BME280;15109;50.992;6.918;2023-02-19T18:08:58;102032.16;;;9.65;100.00
27705;BME280;15109;50.992;6.918;2023-02-19T18:12:19;102033.16;;;9.64;100.00
27705;BME280;15109;50.992;6.918;2023-02-19T18:15:40;102045.94;;;9.64;100.00
27705;BME280;15109;50.992;6.918;2023-02-19T18:19:01;102037.31;;;9.58;100.00
27705;BME280;15109;50.992;6.918;2023-02-19T18:22:23;102033.59;;;9.60;100.00
27705;BME280;15109;50.992;6.918;2023-02-19T18:25:44;102044.81;;;9.56;100.00
27705;BME280;15109;50.992;6.918;2023-02-19T18:29:06;102040.94;;;9.49;100.00
27705;BME280;15109;50.992;6.918;2023-02-19T18:32:27;102051.84;;;9.49;100.00
27705;BME280;15109;50.992;6.918;2023-02-19T18:35:49;102044.84;;;9.47;100.00
27705;BME280;15109;50.992;6.918;2023-02-19T18:39:10;102052.03;;;9.48;100.00
27705;BME280;15109;50.992;6.918;2023-02-19T18:42:31;102045.69;;;9.47;100.00
27705;BME280;15109;50.992;6.918;2023-02-19T18:45:52;102045.13;;;9.44;100.00
27705;BME280;15109;50.992;6.918;2023-02-19T18:49:14;102050.72;;;9.42;100.00
27705;BME280;15109;50.992;6.918;2023-02-19T18:52:35;102053.03;;;9.37;100.00
27705;BME280;15109;50.992;6.918;2023-02-19T18:55:57;102061.66;;;9.33;100.00
27705;BME280;15109;50.992;6.918;2023-02-19T18:59:19;102058.38;;;9.29;100.00
27705;BME280;15109;50.992;6.918;2023-02-19T19:02:41;102064.44;;;9.23;100.00
27705;BME280;15109;50.992;6.918;2023-02-19T19:06:02;102073.44;;;9.24;100.00
27705;BME280;15109;50.992;6.918;2023-02-19T19:09:23;102069.03;;;9.23;100.00
27705;BME280;15109;50.992;6.918;2023-02-19T19:12:44;102075.63;;;9.20;100.00
27705;BME280;15109;50.992;6.918;2023-02-19T19:16:05;102062.97;;;9.19;100.00
27705;BME280;15109;50.992;6.918;2023-02-19T19:19:26;102061.84;;;9.22;100.00
27705;BME280;15109;50.992;6.918;2023-02-19T19:22:51;102073.75;;;9.21;100.00
27705;BME280;15109;50.992;6.918;2023-02-19T19:26:13;102073.75;;;9.21;100.00
27705;BME280;15109;50.992;6.918;2023-02-19T19:29:34;102085.66;;;9.20;100.00
27705;BME280;15109;50.992;6.918;2023-02-19T19:32:55;102090.84;;;9.23;100.00
27705;BME280;15109;50.992;6.918;2023-02-19T19:36:21;102084.53;;;9.22;100.00
27705;BME280;15109;50.992;6.918;2023-02-19T19:39:42;102095.56;;;9.21;100.00